Time;durP1;ratioP1;P1;durP2;ratioP2;P2;SDS_P1;SDS_P2;PMS_P1;PMS_P2;Temp;Humidity;BMP_temperature;BMP_pressure;BME280_temperature;BME280_humidity;BME280_pressure;Samples;Min_cycle;Max_cycle;Signal;HPM_P1;HPM_P2
2024/01/14 00:00:51;;;;;;;22.75;16.00;;;;;;;-4.99;100.00;97334.09;1224860;75;2921899;-64
2024/01/14 00:03:24;;;;;;;31.00;21.65;;;;;;;-5.22;100.00;97313.13;1225377;75;2921334;-64
2024/01/14 00:05:56;;;;;;;27.00;20.75;;;;;;;-5.01;100.00;97319.63;1224404;75;2922394;-64
2024/01/14 00:08:29;;;;;;;26.15;17.95;;;;;;;-5.06;100.00;97315.41;1224568;75;2916881;-66
2024/01/14 00:11:04;;;;;;;21.95;16.20;;;;;;;-5.03;100.00;97300.53;1224875;75;2918043;-65
2024/01/14 00:13:37;;;;;;;20.40;15.80;;;;;;;-5.13;100.00;97329.50;1225012;75;2922455;-65
2024/01/14 00:16:10;;;;;;;25.20;18.05;;;;;;;-5.14;100.00;97311.22;1224155;75;2916401;-64
2024/01/14 00:18:43;;;;;;;24.15;17.70;;;;;;;-5.04;100.00;97302.47;1225238;75;2920904;-64
2024/01/14 00:21:16;;;;;;;21.40;16.15;;;;;;;-5.00;100.00;97300.56;1224796;75;2924197;-65
2024/01/14 00:23:49;;;;;;;22.60;17.65;;;;;;;-5.08;100.00;97295.59;1224199;75;2917769;-65
2024/01/14 00:26:27;;;;;;;20.60;15.60;;;;;;;-5.08;100.00;97306.25;1225034;75;2919434;-64
2024/01/14 00:29:01;;;;;;;;;;;;;;;-5.15;100.00;97294.47;1225343;75;2926590;-66
2024/01/14 00:31:34;;;;;;;26.65;20.15;;;;;;;-5.00;100.00;97292.56;1224104;75;2924884;-64
2024/01/14 00:34:07;;;;;;;21.10;17.45;;;;;;;-5.00;100.00;97289.88;1224853;75;2922484;-65
2024/01/14 00:36:42;;;;;;;20.55;15.85;;;;;;;-5.09;100.00;97299.41;1224904;75;2920519;-64
2024/01/14 00:39:15;;;;;;;39.25;25.30;;;;;;;-5.04;100.00;97305.13;1224047;75;2921835;-65
2024/01/14 00:41:51;;;;;;;28.10;20.05;;;;;;;-4.94;100.00;97295.59;1224507;75;2915596;-64
2024/01/14 00:44:24;;;;;;;25.90;19.45;;;;;;;-5.02;100.00;97292.16;1224212;75;2935802;-62
2024/01/14 00:46:57;;;;;;;24.10;17.10;;;;;;;-5.09;100.00;97278.06;1224206;75;2916668;-66
2024/01/14 00:49:30;;;;;;;24.10;16.95;;;;;;;-5.08;100.00;97309.69;1225182;75;2923377;-65
2024/01/14 00:52:03;;;;;;;30.15;22.70;;;;;;;-5.02;100.00;97302.84;1225203;75;2921851;-65
2024/01/14 00:54:35;;;;;;;31.10;22.25;;;;;;;-4.98;100.00;97302.81;1223864;75;2919781;-66
2024/01/14 00:57:11;;;;;;;28.45;22.35;;;;;;;-4.98;100.00;97308.16;1223923;75;2923386;-65
2024/01/14 00:59:44;;;;;;;30.80;23.35;;;;;;;-5.10;100.00;97319.22;1224986;75;2918521;-64
2024/01/14 01:02:17;;;;;;;36.90;26.85;;;;;;;-5.09;100.00;97307.41;1224419;75;2918685;-64
2024/01/14 01:04:50;;;;;;;32.05;22.35;;;;;;;-4.92;100.00;97307.41;1224709;75;2917773;-66
2024/01/14 01:07:23;;;;;;;28.15;21.40;;;;;;;-4.88;100.00;97310.09;1225048;75;2918243;-65
2024/01/14 01:09:56;;;;;;;24.00;18.50;;;;;;;-4.82;100.00;97310.47;1224524;75;2923760;-64
2024/01/14 01:12:32;;;;;;;27.40;19.25;;;;;;;-4.86;100.00;97310.47;1224942;75;2915694;-67
2024/01/14 01:15:05;;;;;;;43.75;31.00;;;;;;;-4.82;100.00;97311.22;1224554;75;2917238;-66
2024/01/14 01:17:38;;;;;;;37.25;28.40;;;;;;;-4.75;100.00;97311.22;1224301;75;2922118;-65
2024/01/14 01:20:12;;;;;;;35.85;25.45;;;;;;;-4.76;100.00;97309.72;1224640;75;2919812;-64
2024/01/14 01:22:45;;;;;;;32.35;24.55;;;;;;;-4.82;100.00;97294.44;1224284;75;2924748;-65
2024/01/14 01:25:18;;;;;;;38.25;27.00;;;;;;;-4.93;100.00;97307.78;1224267;75;2926061;-67
2024/01/14 01:27:53;;;;;;;35.45;26.55;;;;;;;-4.72;100.00;97302.44;1224985;75;2920172;-66
2024/01/14 01:30:26;;;;;;;35.80;27.50;;;;;;;-4.79;100.00;97317.72;1223737;75;2927467;-64
2024/01/14 01:32:59;;;;;;;36.10;26.10;;;;;;;-4.73;100.00;97318.88;1224037;75;2921557;-63
2024/01/14 01:35:32;;;;;;;32.35;22.50;;;;;;;-4.75;100.00;97326.50;1224587;75;2923056;-65
2024/01/14 01:38:05;;;;;;;40.05;27.30;;;;;;;-4.79;100.00;97294.44;1224194;75;2919731;-66
2024/01/14 01:40:38;;;;;;;32.60;23.70;;;;;;;-4.84;100.00;97323.44;1224470;75;2922907;-64
2024/01/14 01:43:13;;;;;;;43.50;29.50;;;;;;;-4.93;100.00;97292.56;1224323;75;2923207;-66
2024/01/14 01:45:46;;;;;;;37.40;27.20;;;;;;;-4.78;100.00;97297.91;1224207;75;2926310;-67
2024/01/14 01:48:19;;;;;;;34.60;25.75;;;;;;;-4.74;100.00;97304.75;1224181;75;2923799;-64
2024/01/14 01:50:56;;;;;;;36.55;27.10;;;;;;;-4.75;100.00;97289.88;1224396;75;2934267;-65
2024/01/14 01:53:30;;;;;;;39.10;27.85;;;;;;;-4.85;100.00;97293.31;1224006;75;2934934;-66
2024/01/14 01:56:03;;;;;;;41.05;28.40;;;;;;;-5.11;100.00;97291.78;1225178;75;2917890;-64
2024/01/14 01:58:39;;;;;;;38.90;26.70;;;;;;;-4.81;100.00;97291.41;1224096;75;2925810;-65
2024/01/14 02:01:12;;;;;;;30.25;22.25;;;;;;;-4.73;100.00;97289.50;1225112;75;2922860;-67
2024/01/14 02:03:46;;;;;;;28.70;20.60;;;;;;;-4.82;100.00;97281.09;1224450;75;2922066;-66
2024/01/14 02:06:19;;;;;;;28.05;20.55;;;;;;;-5.00;100.00;97289.13;1223961;75;2919852;-63
2024/01/14 02:08:52;;;;;;;29.10;22.50;;;;;;;-4.74;100.00;97287.94;1224777;75;2922546;-65
2024/01/14 02:11:25;;;;;;;36.75;27.35;;;;;;;-5.00;100.00;97270.44;1224295;75;2924047;-63
2024/01/14 02:14:01;;;;;;;31.70;22.40;;;;;;;-4.97;100.00;97283.78;1224346;83;2921855;-64
2024/01/14 02:16:33;;;;;;;26.90;20.70;;;;;;;-4.88;100.00;97299.41;1225029;75;2918787;-65
2024/01/14 02:19:06;;;;;;;29.90;22.65;;;;;;;-4.97;100.00;97270.44;1224124;75;2923172;-67
2024/01/14 02:21:45;;;;;;;35.90;26.00;;;;;;;-5.03;100.00;97266.59;1225169;75;2922111;-64
2024/01/14 02:24:30;;;;;;;29.20;22.55;;;;;;;-5.17;100.00;97266.59;1224561;75;2920638;-64
2024/01/14 02:27:03;;;;;;;32.85;24.55;;;;;;;-5.08;100.00;97280.34;1224940;75;2931273;-62
2024/01/14 02:29:39;;;;;;;35.00;24.15;;;;;;;-5.21;100.00;97258.59;1224432;75;2922103;-63
2024/01/14 02:32:11;;;;;;;33.80;25.05;;;;;;;-5.23;100.00;97298.25;1224551;75;2919701;-64
2024/01/14 02:34:44;;;;;;;40.75;30.15;;;;;;;-5.26;100.00;97268.91;1224628;75;2922810;-64
2024/01/14 02:37:18;;;;;;;34.05;24.45;;;;;;;-5.10;100.00;97285.28;1223767;75;2923999;-65
2024/01/14 02:39:54;;;;;;;31.30;23.05;;;;;;;-5.24;100.00;97264.72;1221487;75;2921723;-65
2024/01/14 02:42:27;;;;;;;32.50;22.70;;;;;;;-5.17;100.00;97259.38;1223974;75;2918731;-66
2024/01/14 02:44:59;;;;;;;28.25;20.70;;;;;;;-5.15;100.00;97283.00;1218692;75;3003897;-66
2024/01/14 02:47:32;;;;;;;42.60;29.05;;;;;;;-5.15;100.00;97259.75;1224258;75;2929835;-64
2024/01/14 02:50:06;;;;;;;40.30;29.60;;;;;;;-5.38;100.00;97262.78;1224316;75;2918315;-65
2024/01/14 02:52:40;;;;;;;32.65;24.95;;;;;;;-5.26;100.00;97271.56;1224075;75;2938585;-66
2024/01/14 02:55:15;;;;;;;37.80;27.95;;;;;;;-5.51;100.00;97256.28;1219087;75;2944809;-65
2024/01/14 02:57:49;;;;;;;36.35;26.25;;;;;;;-5.44;100.00;97264.28;1222357;75;2918236;-66
2024/01/14 03:00:22;;;;;;;36.65;26.85;;;;;;;-5.45;100.00;97268.09;1224276;75;2913989;-65
2024/01/14 03:02:55;;;;;;;39.50;29.30;;;;;;;-5.59;100.00;97247.50;1221270;75;2990714;-66
2024/01/14 03:05:28;;;;;;;33.65;26.25;;;;;;;-5.54;100.00;97264.28;1220914;75;2926409;-67
2024/01/14 03:08:00;;;;;;;30.50;23.80;;;;;;;-5.51;100.00;97250.19;1221077;75;2928583;-65
2024/01/14 03:10:36;;;;;;;32.90;23.15;;;;;;;-5.47;100.00;97261.63;1221343;75;2910264;-66
2024/01/14 03:13:09;;;;;;;30.05;21.40;;;;;;;-5.50;100.00;97257.81;1220998;75;2919692;-64
2024/01/14 03:15:42;;;;;;;26.00;18.50;;;;;;;-5.61;100.00;97259.69;1222461;75;2919590;-64
2024/01/14 03:18:15;;;;;;;27.20;19.50;;;;;;;-5.79;100.00;97252.41;1222149;75;2921263;-64
2024/01/14 03:20:48;;;;;;;32.45;24.85;;;;;;;-5.79;100.00;97254.34;1223187;75;2911831;-66
2024/01/14 03:23:22;;;;;;;29.40;22.90;;;;;;;-5.74;100.00;97245.97;1222325;75;2938528;-65
2024/01/14 03:25:58;;;;;;;30.20;22.05;;;;;;;-5.75;100.00;97233.75;1224418;75;2917948;-64
2024/01/14 03:28:30;;;;;;;30.80;22.85;;;;;;;-5.87;100.00;97253.56;1224807;75;2920311;-66
2024/01/14 03:31:03;;;;;;;39.75;28.35;;;;;;;-6.04;100.00;97230.28;1225261;75;2917066;-64
2024/01/14 03:33:36;;;;;;;35.05;25.65;;;;;;;-5.80;100.00;97248.25;1223554;75;2929659;-64
2024/01/14 03:36:09;;;;;;;39.60;28.95;;;;;;;-5.94;100.00;97208.25;1224098;75;2919894;-63
2024/01/14 03:38:42;;;;;;;42.85;30.00;;;;;;;-5.90;100.00;97226.88;1224224;75;2920168;-65
2024/01/14 03:41:18;;;;;;;37.50;27.10;;;;;;;-5.96;100.00;97217.75;1224253;75;2924941;-65
2024/01/14 03:43:51;;;;;;;31.15;23.45;;;;;;;-5.87;100.00;97223.44;1224886;75;2923324;-66
2024/01/14 03:46:24;;;;;;;30.30;22.05;;;;;;;-6.01;100.00;97221.56;1224441;75;2921144;-67
2024/01/14 03:48:57;;;;;;;33.90;24.40;;;;;;;-5.93;100.00;97201.75;1224626;75;2924347;-64
2024/01/14 03:51:30;;;;;;;31.50;20.90;;;;;;;-5.86;100.00;97233.75;1225158;75;2932649;-66
2024/01/14 03:54:02;;;;;;;38.10;28.50;;;;;;;-6.03;100.00;97186.53;1224920;75;2918679;-65
2024/01/14 03:56:38;;;;;;;35.60;26.35;;;;;;;-5.90;100.00;97218.88;1223710;75;2927877;-67
2024/01/14 03:59:11;;;;;;;33.05;23.70;;;;;;;-5.87;100.00;97181.59;1224440;75;2915202;-66
2024/01/14 04:01:43;;;;;;;28.80;21.65;;;;;;;-5.92;100.00;97199.84;1224768;75;2920501;-65
2024/01/14 04:04:16;;;;;;;29.75;22.25;;;;;;;-5.88;100.00;97201.38;1223365;75;2922252;-64
2024/01/14 04:06:46;;;;;;;25.35;19.75;;;;;;;-5.87;100.00;97178.13;1224413;75;2940745;-64
2024/01/14 04:09:19;;;;;;;27.25;20.90;;;;;;;-5.84;100.00;97209.38;1224700;75;2922281;-63
2024/01/14 04:11:54;;;;;;;36.55;25.20;;;;;;;-5.95;100.00;97182.72;1225152;75;2921568;-63
2024/01/14 04:14:27;;;;;;;30.65;22.85;;;;;;;-5.92;100.00;97194.50;1224675;75;2926659;-63
2024/01/14 04:17:00;;;;;;;25.25;19.05;;;;;;;-5.92;100.00;97199.84;1224215;75;2951916;-65
2024/01/14 04:19:33;;;;;;;25.35;19.25;;;;;;;-5.90;100.00;97186.91;1222681;75;3083256;-65
2024/01/14 04:22:06;;;;;;;21.45;17.20;;;;;;;-5.92;100.00;97183.84;1224692;75;2941159;-61
2024/01/14 04:24:39;;;;;;;21.35;16.45;;;;;;;-5.95;100.00;97173.97;1224612;75;2918965;-64
2024/01/14 04:27:14;;;;;;;18.30;14.50;;;;;;;-5.98;100.00;97174.75;1225056;75;2918143;-66
2024/01/14 04:29:47;;;;;;;19.75;15.55;;;;;;;-6.05;100.00;97189.56;1224903;75;2921011;-66
2024/01/14 04:32:20;;;;;;;19.65;14.65;;;;;;;-6.06;100.00;97193.38;1224936;75;2921036;-66
2024/01/14 04:34:53;;;;;;;19.85;15.85;;;;;;;-6.05;100.00;97191.47;1225532;75;2922703;-65
2024/01/14 04:37:25;;;;;;;26.45;19.40;;;;;;;-6.13;100.00;97181.91;1224780;75;2918480;-66
2024/01/14 04:39:58;;;;;;;22.80;17.85;;;;;;;-6.03;100.00;97195.28;1224239;75;2923029;-65
2024/01/14 04:42:34;;;;;;;27.80;19.70;;;;;;;-6.13;100.00;97169.38;1224802;75;2920512;-67
2024/01/14 04:45:08;;;;;;;25.20;17.85;;;;;;;-6.05;100.00;97186.13;1222622;75;2918792;-67
2024/01/14 04:47:41;;;;;;;28.90;21.45;;;;;;;-6.23;100.00;97183.41;1224302;75;2917479;-65
2024/01/14 04:50:14;;;;;;;36.15;25.25;;;;;;;-6.08;100.00;97170.91;1224782;75;2924273;-66
2024/01/14 04:52:47;;;;;;;33.10;22.55;;;;;;;-6.21;100.00;97173.91;1224097;75;2921263;-65
2024/01/14 04:55:20;;;;;;;38.50;26.95;;;;;;;-6.13;100.00;97171.25;1224617;75;2917714;-65
2024/01/14 04:57:55;;;;;;;33.80;24.95;;;;;;;-6.13;100.00;97187.25;1224965;75;2922790;-64
2024/01/14 05:00:29;;;;;;;38.55;27.25;;;;;;;-6.23;100.00;97157.56;1223930;75;2922722;-66
2024/01/14 05:03:02;;;;;;;33.75;24.75;;;;;;;-6.18;100.00;97187.59;1224304;75;2919693;-65
2024/01/14 05:05:34;;;;;;;35.25;25.30;;;;;;;-6.18;100.00;97171.63;1224348;75;2922081;-65
2024/01/14 05:08:08;;;;;;;42.85;30.95;;;;;;;-6.25;100.00;97167.06;1224538;75;2924916;-65
2024/01/14 05:10:41;;;;;;;36.95;27.85;;;;;;;-6.22;100.00;97172.38;1224703;75;2918530;-63
2024/01/14 05:13:16;;;;;;;46.65;32.50;;;;;;;-6.18;100.00;97182.28;1225312;75;2919325;-63
2024/01/14 05:15:49;;;;;;;41.55;29.15;;;;;;;-6.41;100.00;97167.38;1225088;75;2922939;-65
2024/01/14 05:18:22;;;;;;;45.50;33.85;;;;;;;-6.28;100.00;97163.22;1225774;75;2917954;-64
2024/01/14 05:20:55;;;;;;;38.00;27.50;;;;;;;-6.16;100.00;97175.44;1224104;75;2924039;-65
2024/01/14 05:23:28;;;;;;;32.55;24.55;;;;;;;-6.13;100.00;97166.72;1224010;75;2923363;-66
2024/01/14 05:26:01;;;;;;;30.15;22.55;;;;;;;-6.14;100.00;97167.84;1224033;75;2984952;-65
2024/01/14 05:28:36;;;;;;;29.50;21.40;;;;;;;-6.09;100.00;97169.38;1225133;75;2922830;-66
2024/01/14 05:31:09;;;;;;;25.30;19.30;;;;;;;-6.13;100.00;97173.91;1224991;75;2918588;-65
2024/01/14 05:33:42;;;;;;;35.15;25.75;;;;;;;-6.25;100.00;97162.50;1225143;75;2925677;-66
2024/01/14 05:36:14;;;;;;;33.25;24.25;;;;;;;-6.48;100.00;97186.00;1224294;75;2922619;-64
2024/01/14 05:38:47;;;;;;;38.25;26.95;;;;;;;-6.34;100.00;97163.97;1224265;67;2923951;-66
2024/01/14 05:41:20;;;;;;;43.80;31.45;;;;;;;-6.71;100.00;97170.28;1224629;75;2917248;-66
2024/01/14 05:43:56;;;;;;;40.50;29.85;;;;;;;-6.38;100.00;97161.28;1225102;75;2930147;-66
2024/01/14 05:46:28;;;;;;;42.15;31.50;;;;;;;-6.53;100.00;97149.84;1223316;75;2924368;-66
2024/01/14 05:49:01;;;;;;;38.20;28.75;;;;;;;-6.44;100.00;97155.56;1225193;75;2919119;-67
2024/01/14 05:51:34;;;;;;;42.25;28.45;;;;;;;-6.74;100.00;97139.09;1224448;75;2928263;-66
2024/01/14 05:54:07;;;;;;;38.20;26.50;;;;;;;-6.52;100.00;97146.03;1224227;75;2922660;-67
2024/01/14 05:56:40;;;;;;;31.05;23.25;;;;;;;-6.40;100.00;97168.13;1225049;75;2915982;-66
2024/01/14 05:59:15;;;;;;;38.00;28.50;;;;;;;-6.73;100.00;97165.34;1225011;75;2918026;-65
2024/01/14 06:01:48;;;;;;;37.30;27.80;;;;;;;-6.60;100.00;97168.44;1224913;75;2922813;-64
2024/01/14 06:04:21;;;;;;;37.65;26.90;;;;;;;-6.53;100.00;97162.38;1224603;75;2923331;-65
2024/01/14 06:06:54;;;;;;;34.25;23.95;;;;;;;-6.58;100.00;97163.50;1224899;75;2926305;-64
2024/01/14 06:09:27;;;;;;;41.75;28.15;;;;;;;-6.91;100.00;97153.84;1222865;75;2922828;-65
2024/01/14 06:11:59;;;;;;;38.55;28.55;;;;;;;-6.67;100.00;97168.41;1224494;75;2933049;-64
2024/01/14 06:14:35;;;;;;;34.00;24.70;;;;;;;-6.68;100.00;97169.56;1223231;75;2920927;-64
2024/01/14 06:17:08;;;;;;;28.95;19.30;;;;;;;-6.62;100.00;97154.72;1224153;75;2924233;-64
2024/01/14 06:19:41;;;;;;;26.80;18.50;;;;;;;-6.66;100.00;97178.69;1224636;75;2922260;-65
2024/01/14 06:22:15;;;;;;;46.10;32.50;;;;;;;-6.98;100.00;97149.22;1224211;75;2929302;-65
2024/01/14 06:24:48;;;;;;;40.50;27.65;;;;;;;-6.74;100.00;97184.34;1223568;75;2927239;-66
2024/01/14 06:27:22;;;;;;;45.40;29.05;;;;;;;-6.77;100.00;97155.81;1195601;75;5060090;-66
2024/01/14 06:29:58;;;;;;;36.80;24.85;;;;;;;-6.69;100.00;97173.34;1222227;75;2937342;-65
2024/01/14 06:32:31;;;;;;;36.15;24.85;;;;;;;-6.91;100.00;97167.91;1159018;75;5940305;-63
2024/01/14 06:35:04;;;;;;;42.45;26.65;;;;;;;-6.89;100.00;97168.28;1224486;75;2918096;-66
2024/01/14 06:37:37;;;;;;;41.15;30.20;;;;;;;-6.86;100.00;97169.44;1223545;75;2924596;-66
2024/01/14 06:40:11;;;;;;;33.75;23.35;;;;;;;-6.83;100.00;97179.38;1224052;75;2928189;-61
2024/01/14 06:42:44;;;;;;;34.45;23.70;;;;;;;-7.02;100.00;97176.94;1183387;75;5904626;-63
2024/01/14 06:45:20;;;;;;;35.00;23.15;;;;;;;-6.87;100.00;97166.03;1223502;75;2926765;-66
2024/01/14 06:47:53;;;;;;;35.60;25.05;;;;;;;-6.95;100.00;97172.47;1224022;75;2917153;-66
2024/01/14 06:50:26;;;;;;;44.20;29.55;;;;;;;-6.92;100.00;97173.63;1223416;75;2951434;-65
2024/01/14 06:52:59;;;;;;;44.65;28.80;;;;;;;-6.83;100.00;97178.59;1217699;75;3283358;-66
2024/01/14 06:55:32;;;;;;;39.20;25.10;;;;;;;-6.87;100.00;97166.03;1223176;75;2920020;-66
2024/01/14 06:58:04;;;;;;;37.95;25.40;;;;;;;-6.79;100.00;97168.72;1223664;75;2920113;-65
2024/01/14 07:00:40;;;;;;;36.05;25.95;;;;;;;-7.00;100.00;97161.38;1223524;75;2922094;-63
2024/01/14 07:03:13;;;;;;;33.90;21.90;;;;;;;-6.71;100.00;97183.59;1223757;75;2916401;-64
2024/01/14 07:05:46;;;;;;;37.00;24.10;;;;;;;-6.78;100.00;97165.72;1224779;75;2924752;-65
2024/01/14 07:08:19;;;;;;;41.50;25.20;;;;;;;-6.61;100.00;97172.25;1188812;75;5539436;-68
2024/01/14 07:10:52;;;;;;;36.25;24.80;;;;;;;-6.70;100.00;97153.94;1221911;75;2913493;-65
2024/01/14 07:13:25;;;;;;;33.60;22.50;;;;;;;-6.61;100.00;97158.16;1224315;75;2923015;-65
2024/01/14 07:16:00;;;;;;;32.25;20.60;;;;;;;-6.39;100.00;97167.78;1223787;67;2934886;-65
2024/01/14 07:18:33;;;;;;;26.35;18.25;;;;;;;-6.28;100.00;97173.13;1224227;75;2916994;-64
2024/01/14 07:21:06;;;;;;;28.80;19.20;;;;;;;-6.29;100.00;97160.94;1223313;75;2927892;-64
2024/01/14 07:23:38;;;;;;;32.45;19.80;;;;;;;-6.28;100.00;97178.44;1223352;75;2922144;-65
2024/01/14 07:26:18;;;;;;;45.55;29.35;;;;;;;-6.38;100.00;97184.50;1223973;75;2928071;-67
2024/01/14 07:28:52;;;;;;;55.50;34.00;;;;;;;-6.37;100.00;97162.84;1223555;75;2920108;-65
2024/01/14 07:31:31;;;;;;;49.85;31.80;;;;;;;-6.19;100.00;97175.44;1223781;75;2923428;-64
2024/01/14 07:34:08;;;;;;;68.80;41.00;;;;;;;-6.20;100.00;97185.34;1186264;75;5849773;-66
2024/01/14 07:36:41;;;;;;;59.60;37.30;;;;;;;-5.95;100.00;97181.97;1222490;75;2990361;-65
2024/01/14 07:39:15;;;;;;;56.80;34.65;;;;;;;-5.94;100.00;97183.47;1224288;75;2922243;-63
2024/01/14 07:41:47;;;;;;;41.65;29.70;;;;;;;-5.83;100.00;97192.25;1223748;75;2924828;-64
2024/01/14 07:44:20;;;;;;;54.70;34.45;;;;;;;-5.96;100.00;97175.09;1223780;75;2925962;-65
2024/01/14 07:46:56;;;;;;;51.80;34.75;;;;;;;-5.85;100.00;97187.28;1224985;75;2919310;-65
2024/01/14 07:49:29;;;;;;;59.35;39.00;;;;;;;-5.82;100.00;97186.53;1223490;75;2918075;-64
2024/01/14 07:52:03;;;;;;;53.50;35.45;;;;;;;-5.68;100.00;97177.78;1224149;75;2947767;-64
2024/01/14 07:54:36;;;;;;;49.20;34.00;;;;;;;-5.57;100.00;97188.47;1223065;75;2923094;-63
2024/01/14 07:57:09;;;;;;;65.35;40.00;;;;;;;-5.54;100.00;97174.38;1223952;75;2922224;-64
2024/01/14 07:59:42;;;;;;;48.95;32.35;;;;;;;-5.28;100.00;97191.16;1223580;75;2918920;-65
2024/01/14 08:02:17;;;;;;;52.60;35.35;;;;;;;-5.46;100.00;97181.25;1224573;75;2923267;-64
2024/01/14 08:04:50;;;;;;;49.30;31.60;;;;;;;-5.15;100.00;97187.72;1222949;75;2935334;-64
2024/01/14 08:07:23;;;;;;;43.90;28.85;;;;;;;-5.00;100.00;97190.38;1223683;75;2926177;-63
2024/01/14 08:09:56;;;;;;;37.45;26.10;;;;;;;-4.95;100.00;97200.66;1224034;75;2923688;-65
2024/01/14 08:12:29;;;;;;;47.50;30.50;;;;;;;-5.09;100.00;97182.75;1225118;75;2923009;-64
2024/01/14 08:15:02;;;;;;;43.75;30.20;;;;;;;-5.00;100.00;97198.38;1225134;75;2922299;-65
2024/01/14 08:17:37;;;;;;;40.60;27.75;;;;;;;-4.80;100.00;97206.72;1224867;75;2918848;-65
2024/01/14 08:20:12;;;;;;;33.05;24.60;;;;;;;-4.73;100.00;97191.44;1224192;75;2928118;-64
2024/01/14 08:22:45;;;;;;;42.10;31.00;;;;;;;-4.85;100.00;97183.09;1223754;75;2922140;-66
2024/01/14 08:25:18;;;;;;;40.10;28.15;;;;;;;-4.79;100.00;97179.63;1221902;75;2996677;-64
2024/01/14 08:27:51;;;;;;;38.25;26.25;;;;;;;-4.51;100.00;97191.38;1224729;75;2917625;-64
2024/01/14 08:30:24;;;;;;;44.55;30.90;;;;;;;-4.62;100.00;97188.75;1225420;75;2922500;-63
2024/01/14 08:32:59;;;;;;;40.60;28.05;;;;;;;-4.52;100.00;97182.63;1224100;75;2925025;-66
2024/01/14 08:35:32;;;;;;;37.75;26.35;;;;;;;-4.27;100.00;97189.78;1224884;75;2916603;-66
2024/01/14 08:38:05;;;;;;;54.00;35.45;;;;;;;-4.34;100.00;97187.13;1223993;75;2925094;-65
2024/01/14 08:40:37;;;;;;;46.65;33.55;;;;;;;-4.41;100.00;97203.19;1223407;75;2919759;-64
2024/01/14 08:43:10;;;;;;;41.05;29.75;;;;;;;-4.17;100.00;97199.66;1224290;75;2920709;-65
2024/01/14 08:45:43;;;;;;;43.05;32.00;;;;;;;-4.26;100.00;97212.66;1224569;75;2919089;-65
2024/01/14 08:48:19;;;;;;;60.10;41.20;;;;;;;-4.47;100.00;97170.78;1224261;75;2921769;-66
2024/01/14 08:50:53;;;;;;;51.70;38.00;;;;;;;-4.21;100.00;97214.97;1224516;75;2929467;-64
2024/01/14 08:53:25;;;;;;;57.75;38.60;;;;;;;-4.26;100.00;97185.19;1224400;75;2925737;-65
2024/01/14 08:55:58;;;;;;;44.15;31.15;;;;;;;-3.99;100.00;97191.56;1224306;67;2926701;-64
2024/01/14 08:58:31;;;;;;;43.65;32.70;;;;;;;-4.03;100.00;97195.41;1224011;75;2924107;-64
2024/01/14 09:01:04;;;;;;;51.95;36.35;;;;;;;-4.18;100.00;97192.03;1224130;75;2922263;-65
2024/01/14 09:03:39;;;;;;;58.75;39.05;;;;;;;-4.10;100.00;97190.84;1224201;75;2921167;-64
2024/01/14 09:06:12;;;;;;;59.60;41.65;;;;;;;-4.08;100.00;97202.66;1224741;75;2931383;-65
2024/01/14 09:08:45;;;;;;;57.45;40.90;;;;;;;-4.02;100.00;97200.34;1224210;75;2923721;-63
2024/01/14 09:11:18;;;;;;;74.65;50.80;;;;;;;-3.83;100.00;97196.41;1223045;75;2918384;-65
2024/01/14 09:13:55;;;;;;;64.65;44.95;;;;;;;-3.76;100.00;97198.31;1224343;75;2915826;-64
2024/01/14 09:16:28;;;;;;;57.45;41.00;;;;;;;-3.69;100.00;97195.56;1224094;75;2928264;-66
2024/01/14 09:19:03;;;;;;;59.05;40.20;;;;;;;-3.82;100.00;97186.47;1224597;75;2919806;-63
2024/01/14 09:21:36;;;;;;;54.05;35.35;;;;;;;-3.78;100.00;97197.94;1224676;75;2936314;-63
2024/01/14 09:24:10;;;;;;;50.45;37.05;;;;;;;-3.51;100.00;97190.09;1225771;75;2922447;-66
2024/01/14 09:26:43;;;;;;;43.60;32.05;;;;;;;-3.49;100.00;97193.94;1226013;75;2924710;-64
2024/01/14 09:29:16;;;;;;;37.20;26.85;;;;;;;-3.38;100.00;97188.47;1223380;75;2953929;-64
2024/01/14 09:31:49;;;;;;;46.60;32.40;;;;;;;-3.56;100.00;97177.94;1224072;75;2921288;-62
2024/01/14 09:34:24;;;;;;;35.50;26.15;;;;;;;-3.31;100.00;97201.81;1225279;75;2930758;-63
2024/01/14 09:36:57;;;;;;;32.50;23.35;;;;;;;-3.03;100.00;97205.41;1223818;75;2925143;-62
2024/01/14 09:39:29;;;;;;;42.45;30.55;;;;;;;-3.34;100.00;97196.47;1224727;75;2929031;-63
2024/01/14 09:42:17;;;;;;;41.35;29.10;;;;;;;-3.14;100.00;97205.50;1224564;75;2931343;-63
2024/01/14 09:44:51;;;;;;;45.10;31.80;;;;;;;-3.35;100.00;97193.03;1225155;75;2934309;-65
2024/01/14 09:47:25;;;;;;;48.85;32.80;;;;;;;-3.52;100.00;97193.94;1225279;75;2917244;-64
2024/01/14 09:50:03;;;;;;;41.25;30.65;;;;;;;-3.05;100.00;97189.00;1223590;75;2928540;-64
2024/01/14 09:52:37;;;;;;;38.90;28.60;;;;;;;-2.98;100.00;97191.59;1224320;75;2923692;-64
2024/01/14 09:55:11;;;;;;;42.80;30.90;;;;;;;-3.11;100.00;97175.25;1223904;75;2923954;-63
2024/01/14 09:57:48;;;;;;;45.55;31.60;;;;;;;-3.11;100.00;97177.94;1223964;75;2925776;-63
2024/01/14 10:00:24;;;;;;;51.70;35.10;;;;;;;-3.27;100.00;97183.03;1224653;75;2917197;-65
2024/01/14 10:02:57;;;;;;;59.65;39.70;;;;;;;-3.33;100.00;97177.34;1224141;75;2923553;-63
2024/01/14 10:05:33;;;;;;;48.20;32.90;;;;;;;-2.93;100.00;97177.03;1224724;75;2919736;-64
2024/01/14 10:08:06;;;;;;;48.60;33.85;;;;;;;-3.00;100.00;97162.53;1223913;75;2927358;-64
2024/01/14 10:10:39;;;;;;;40.75;29.35;;;;;;;-2.77;100.00;97158.47;1224774;75;2919881;-63
2024/01/14 10:13:12;;;;;;;41.95;30.75;;;;;;;-2.74;100.00;97167.63;1224478;75;2921324;-64
2024/01/14 10:15:45;;;;;;;35.65;25.65;;;;;;;-2.68;100.00;97153.41;1224066;75;2927738;-63
2024/01/14 10:18:18;;;;;;;32.35;23.55;;;;;;;-2.35;100.00;97151.13;1223567;75;2928337;-62
2024/01/14 10:20:54;;;;;;;38.30;27.80;;;;;;;-2.57;100.00;97150.63;1223715;75;2920589;-63
2024/01/14 10:23:28;;;;;;;61.35;39.40;;;;;;;-3.03;100.00;97146.50;1223786;75;2924522;-64
2024/01/14 10:26:04;;;;;;;52.95;35.75;;;;;;;-2.46;100.00;97123.69;1225043;75;2882001;-67
2024/01/14 10:28:38;;;;;;;51.00;35.40;;;;;;;-2.49;100.00;97135.22;1223215;75;2919298;-64
2024/01/14 10:31:11;;;;;;;53.55;34.80;;;;;;;-2.61;100.00;97131.13;1223969;75;2915438;-64
2024/01/14 10:33:44;;;;;;;46.25;31.25;;;;;;;-2.27;100.00;97130.34;1215691;67;3274083;-63
2024/01/14 10:36:19;;;;;;;49.55;33.50;;;;;;;-2.67;100.00;97128.16;1223907;75;2935753;-65
2024/01/14 10:38:55;;;;;;;47.55;34.15;;;;;;;-2.43;100.00;97122.88;1224667;75;2923976;-64
2024/01/14 10:41:29;;;;;;;44.95;31.00;;;;;;;-2.37;100.00;97132.00;1223939;75;2922792;-65
2024/01/14 10:44:02;;;;;;;41.85;30.30;;;;;;;-2.44;100.00;97127.47;1224596;75;2922159;-64
2024/01/14 10:46:37;;;;;;;50.90;35.30;;;;;;;-2.64;100.00;97111.25;1224031;75;2926802;-65
2024/01/14 10:49:14;;;;;;;51.20;34.50;;;;;;;-2.38;100.00;97125.88;1224224;75;2925515;-64
2024/01/14 10:51:57;;;;;;;54.30;38.40;;;;;;;-2.69;100.00;97127.03;1223897;75;2924217;-64
2024/01/14 10:54:37;;;;;;;54.20;36.15;;;;;;;-2.35;100.00;97102.88;1224342;75;2917593;-64
2024/01/14 10:57:22;;;;;;;55.55;37.20;;;;;;;-2.64;100.00;97127.34;1223966;75;2925211;-64
2024/01/14 11:00:06;;;;;;;44.20;31.30;;;;;;;-2.31;100.00;97100.88;1224511;75;2917902;-66
2024/01/14 11:02:44;;;;;;;51.50;34.10;;;;;;;-2.21;100.00;97100.00;1223815;75;2924687;-63
2024/01/14 11:05:18;;;;;;;51.45;33.70;;;;;;;-2.25;100.00;97099.28;1224103;75;2928042;-64
2024/01/14 11:07:56;;;;;;;48.05;33.50;;;;;;;-2.42;100.00;97100.28;1224693;75;2921512;-66
2024/01/14 11:10:29;;;;;;;59.40;40.70;;;;;;;-2.13;100.00;97073.84;1224541;75;2924734;-64
2024/01/14 11:13:15;;;;;;;47.20;32.20;;;;;;;-1.98;100.00;97096.59;1224899;75;2922752;-64
2024/01/14 11:15:56;;;;;;;50.20;33.55;;;;;;;-1.97;100.00;97087.41;1223986;75;2926490;-66
2024/01/14 11:18:35;;;;;;;59.65;39.70;;;;;;;-2.26;100.00;97081.69;1224108;75;2924822;-65
2024/01/14 11:21:26;;;;;;;61.20;40.55;;;;;;;-2.25;100.00;97063.69;1223654;75;2918333;-63
2024/01/14 11:24:02;;;;;;;50.20;35.75;;;;;;;-1.97;100.00;97074.00;1224747;75;2925593;-65